Costa Pacifica — ICJA — position and weather

sailwx.info

Track history (hours):
 
Tides and Currents Weather Stations Pressure Air Temp Water Temp Dewpoint Dewpoint Depression Visibility Wind Speed Wind Dir Waves Ship Positions

Costa Pacifica

Last reported at 2017-May-24 23:53 UTC. Time now 2017-May-25 10:38 UTC.
Position N 35°58' W 005°49'.

Length 290 m; draft 8.3 m.

Type: Ship. MMSI: 247258100.

Date/timePositionNaut miles runAvg speedWind from/ knotsBaromVisibWave heightAir tempDewpointWater temp
2017-May-24 23:53N 35°58' W 005°49'615.7
2017-May-24 23:30N 35°58' W 005°42'919.0
2017-May-24 23:00N 35°59' W 005°30'918.2
2017-May-24 22:30N 36°01' W 005°20'917.4
2017-May-24 22:00N 36°03' W 005°09'1017.9
2017-May-24 21:27N 36°06' W 004°57'20014.0
2017-May-24 07:06N 37°15' W 001°03'218.7
2017-May-24 06:59N 37°16' W 001°01'1018.4
2017-May-24 06:26N 37°23' W 000°51'818.4
2017-May-24 06:00N 37°27' W 000°43'918.9
2017-May-24 05:30N 37°34' W 000°34'918.8
2017-May-24 05:00N 37°41' W 000°27'1018.7
2017-May-24 04:29N 37°49' W 000°21'1018.3
2017-May-24 03:55N 37°58' W 000°14'918.4
2017-May-24 03:27N 38°05' W 000°08'918.7
2017-May-24 02:57N 38°13' W 000°01'918.7
2017-May-24 02:30N 38°20' E 000°05'1718.9
2017-May-24 01:35N 38°35' E 000°17'518.8
2017-May-24 01:18N 38°39' E 000°20'618.6
2017-May-24 01:00N 38°44' E 000°24'3318.7
2017-May-23 23:15N 39°13' E 000°44'618.7
2017-May-23 22:56N 39°18' E 000°48'1018.6
2017-May-23 22:24N 39°27' E 000°54'1318.7
2017-May-23 21:43N 39°38' E 001°01'418.7
2017-May-23 21:31N 39°42' E 001°04'1019.0
2017-May-23 21:00N 39°50' E 001°10'918.8
2017-May-23 20:30N 39°58' E 001°16'918.7
2017-May-23 20:00N 40°07' E 001°21'918.6
2017-May-23 19:30N 40°15' E 001°27'918.4
2017-May-23 19:01N 40°23' E 001°33'918.1
2017-May-23 18:30N 40°31' E 001°38'918.3
2017-May-23 18:01N 40°39' E 001°44'918.3
2017-May-23 17:30N 40°47' E 001°50'918.6
2017-May-23 17:00N 40°55' E 001°55'918.6
2017-May-23 16:31N 41°03' E 002°01'918.5
2017-May-23 16:00N 41°11' E 002°07'815.8
2017-May-23 15:31N 41°19' E 002°10'2 1.0
2017-May-23 13:13N 41°21' E 002°10'0 0.0
2017-May-23 12:31N 41°21' E 002°10'0 0.0
2017-May-23 12:19N 41°21' E 002°10'0 0.0
2017-May-23 11:55N 41°21' E 002°10'0 0.0
2017-May-23 11:22N 41°21' E 002°10'0 0.0
2017-May-23 11:01N 41°21' E 002°10'0 0.0
2017-May-23 10:24N 41°21' E 002°10'0 0.0
2017-May-23 09:57N 41°21' E 002°10'0 0.0
2017-May-23 09:27N 41°21' E 002°10'0 0.0
2017-May-23 08:54N 41°21' E 002°10'0 0.0
2017-May-23 08:23N 41°21' E 002°10'0 0.0
2017-May-23 07:56N 41°21' E 002°10'0 0.0
2017-May-23 07:29N 41°21' E 002°10'0 0.0
2017-May-23 06:56N 41°21' E 002°10'0 0.2
2017-May-23 06:30N 41°21' E 002°10'1 2.3
2017-May-23 06:00N 41°20' E 002°10'4 7.9
2017-May-23 05:30N 41°17' E 002°13'612.3
2017-May-23 05:00N 41°19' E 002°20'612.4
2017-May-23 04:30N 41°23' E 002°27'612.6
2017-May-23 04:00N 41°27' E 002°33'612.4
2017-May-23 03:30N 41°31' E 002°40'612.4
2017-May-23 03:00N 41°34' E 002°47'912.4
2017-May-23 02:19N 41°39' E 002°56'412.3
2017-May-23 01:59N 41°41' E 003°01'612.3
2017-May-23 01:30N 41°44' E 003°07'612.1
2017-May-23 00:59N 41°49' E 003°13'612.1
2017-May-23 00:29N 41°53' E 003°18'612.5
2017-May-23 00:00N 41°58' E 003°24'812.7
2017-May-22 23:23N 42°03' E 003°31'812.7
2017-May-22 22:45N 42°09' E 003°39'312.6
2017-May-22 22:30N 42°11' E 003°42'612.6
2017-May-22 21:59N 42°16' E 003°48'712.6
2017-May-22 21:28N 42°20' E 003°55'612.5
2017-May-22 21:01N 42°24' E 004°00'612.3
2017-May-22 20:30N 42°29' E 004°06'612.6
2017-May-22 20:00N 42°33' E 004°12'612.8
2017-May-22 19:30N 42°38' E 004°19'612.7
2017-May-22 19:00N 42°42' E 004°25'612.7
2017-May-22 18:30N 42°46' E 004°31'612.7
2017-May-22 18:01N 42°51' E 004°37'612.6
2017-May-22 17:30N 42°55' E 004°43'612.5
2017-May-22 17:00N 42°60' E 004°49'612.3
2017-May-22 16:30N 43°04' E 004°55'612.6
2017-May-22 16:00N 43°08' E 005°02'612.5
2017-May-22 15:30N 43°13' E 005°07'612.4
2017-May-22 15:00N 43°17' E 005°13'6 4.9
2017-May-22 13:47N 43°21' E 005°20'0 0.0
2017-May-22 13:29N 43°21' E 005°20'0 0.0
2017-May-22 12:59N 43°21' E 005°20'0 0.0
2017-May-22 12:28N 43°21' E 005°20'0 0.0
2017-May-22 11:52N 43°21' E 005°20'0 0.0
2017-May-22 11:19N 43°21' E 005°20'0 0.0
2017-May-22 10:58N 43°21' E 005°20'0 0.0
2017-May-22 10:28N 43°21' E 005°20'0 0.0
2017-May-22 09:54N 43°21' E 005°20'0 0.0
2017-May-22 09:21N 43°21' E 005°20'0 0.0
2017-May-22 08:48N 43°21' E 005°20'0 0.0
2017-May-22 08:09N 43°21' E 005°20'0 0.0
2017-May-22 07:56N 43°21' E 005°20'0 0.0
2017-May-22 07:20N 43°21' E 005°20'0 0.0
2017-May-22 06:50N 43°21' E 005°20'0 0.0
2017-May-22 06:31N 43°21' E 005°20'1 2.1
2017-May-22 06:00N 43°21' E 005°19'4 8.6
2017-May-22 05:31N 43°19' E 005°14'714.2
2017-May-22 04:59N 43°12' E 005°18'712.9
2017-May-22 04:25N 43°07' E 005°26'613.2
2017-May-22 03:57N 43°04' E 005°33'613.2
2017-May-22 03:30N 43°02' E 005°40'713.1
2017-May-22 02:58N 42°60' E 005°50'613.1
2017-May-22 02:30N 42°57' E 005°57'613.0
2017-May-22 02:00N 42°55' E 006°06'612.6
2017-May-22 01:30N 42°53' E 006°14'612.4
2017-May-22 01:00N 42°53' E 006°22'612.1
2017-May-22 00:30N 42°55' E 006°30'712.9
2017-May-22 00:00N 42°59' E 006°38'612.9
2017-May-21 23:30N 43°03' E 006°44'712.8
2017-May-21 23:00N 43°06' E 006°52'712.7
2017-May-21 22:25N 43°10' E 007°00'512.8
2017-May-21 22:00N 43°14' E 007°06'612.8
2017-May-21 21:30N 43°18' E 007°13'612.9
2017-May-21 21:00N 43°22' E 007°20'612.9
2017-May-21 20:30N 43°26' E 007°27'613.0
2017-May-21 20:00N 43°29' E 007°34'612.7
2017-May-21 19:30N 43°33' E 007°41'816.5
2017-May-21 19:01N 43°39' E 007°49'918.9
2017-May-21 18:30N 43°45' E 007°59'918.8
2017-May-21 18:01N 43°52' E 008°08'918.4
2017-May-21 17:31N 43°59' E 008°16'917.9
2017-May-21 17:01N 44°06' E 008°24'917.8
2017-May-21 16:31N 44°13' E 008°31'611.6
2017-May-21 16:01N 44°19' E 008°31'1 2.2
2017-May-21 15:28N 44°19' E 008°29'0 0.0
2017-May-21 14:58N 44°19' E 008°29'0 0.0
2017-May-21 14:28N 44°19' E 008°29'0 0.0
2017-May-21 13:28N 44°19' E 008°29'0 0.0
2017-May-21 13:00N 44°19' E 008°29'0 0.0
2017-May-21 12:30N 44°19' E 008°29'0 0.0
2017-May-21 12:00N 44°19' E 008°29'0 0.0
2017-May-21 11:30N 44°19' E 008°29'0 0.0
2017-May-21 10:59N 44°19' E 008°29'0 0.0
2017-May-21 10:29N 44°19' E 008°29'0 0.0
2017-May-21 09:59N 44°19' E 008°29'0 0.0
2017-May-21 09:29N 44°19' E 008°29'0 0.0
2017-May-21 08:59N 44°19' E 008°29'0 0.0
2017-May-21 08:28N 44°19' E 008°29'0 0.0
2017-May-21 07:58N 44°19' E 008°29'0 0.0
2017-May-21 07:28N 44°19' E 008°29'0 0.0
2017-May-21 06:55N 44°19' E 008°29'0 0.0
2017-May-21 06:28N 44°19' E 008°29'0 0.0
2017-May-21 06:00N 44°19' E 008°29'0 0.0
2017-May-21 05:30N 44°19' E 008°29'1 2.7
2017-May-21 05:00N 44°19' E 008°31'612.7
2017-May-21 04:30N 44°14' E 008°36'612.8
2017-May-21 04:01N 44°09' E 008°41'612.3
2017-May-21 03:30N 44°03' E 008°45'713.0
2017-May-21 03:00N 43°58' E 008°50'815.6
2017-May-21 02:30N 43°51' E 008°56'1019.2
2017-May-21 02:01N 43°43' E 009°03'918.8
2017-May-21 01:31N 43°35' E 009°10'918.3
2017-May-21 01:01N 43°28' E 009°17'918.0
2017-May-21 00:31N 43°20' E 009°23'917.7
2017-May-21 00:01N 43°13' E 009°30'917.5
2017-May-20 23:31N 43°05' E 009°37'917.8
2017-May-20 23:01N 42°57' E 009°41'917.8
2017-May-20 22:31N 42°49' E 009°46'918.4
2017-May-20 22:01N 42°44' E 009°57'918.1
2017-May-20 21:30N 42°39' E 010°07'917.9
2017-May-20 21:01N 42°34' E 010°17'918.0
2017-May-20 20:30N 42°28' E 010°27'917.9
2017-May-20 20:00N 42°23' E 010°37'68 3.7
2017-May-20 01:46N 41°20' E 011°12'517.2
2017-May-20 01:30N 41°16' E 011°09'917.3
2017-May-20 00:58N 41°08' E 011°04'817.2
2017-May-20 00:29N 41°00' E 010°59'917.6
2017-May-19 23:58N 40°52' E 010°53'817.6
2017-May-19 23:30N 40°45' E 010°48'917.6
2017-May-19 23:00N 40°37' E 010°43'1020.0
2017-May-19 22:30N 40°28' E 010°37'1020.2
2017-May-19 22:00N 40°19' E 010°31'1020.1
2017-May-19 21:30N 40°10' E 010°25'1120.7
2017-May-19 21:00N 40°01' E 010°19'1121.0
2017-May-19 20:29N 39°51' E 010°12'1120.9
2017-May-19 19:58N 39°42' E 010°06'1120.8
2017-May-19 19:28N 39°32' E 009°60'1020.8
2017-May-19 18:59N 39°23' E 009°54'1020.6
2017-May-19 18:30N 39°14' E 009°48'1020.0
2017-May-19 17:59N 39°06' E 009°41'919.7
2017-May-19 17:30N 38°59' E 009°32'1020.3
2017-May-19 17:00N 39°04' E 009°20'1019.3
2017-May-19 16:29N 39°09' E 009°09'4 9.1
2017-May-19 16:00N 39°13' E 009°06'0 0.0
2017-May-19 15:28N 39°13' E 009°06'0 0.0
2017-May-19 14:55N 39°13' E 009°06'0 0.0
2017-May-19 13:58N 39°13' E 009°06'0 0.0
2017-May-19 13:30N 39°13' E 009°06'0 0.0
2017-May-19 13:00N 39°13' E 009°06'0 0.0
2017-May-19 12:30N 39°13' E 009°06'0 0.0
2017-May-19 12:00N 39°13' E 009°06'0 0.0
2017-May-19 11:30N 39°13' E 009°06'0 0.0
2017-May-19 10:59N 39°13' E 009°06'0 0.0
2017-May-19 10:29N 39°13' E 009°06'0 0.0
2017-May-19 09:59N 39°13' E 009°06'0 0.0
2017-May-19 09:29N 39°13' E 009°06'0 0.0
2017-May-19 08:59N 39°13' E 009°06'0 0.0
2017-May-19 08:28N 39°13' E 009°06'0 0.0
2017-May-19 07:58N 39°13' E 009°06'0 0.0
2017-May-19 07:28N 39°13' E 009°06'0 0.0
2017-May-19 06:58N 39°13' E 009°06'86 9.4
2017-May-18 21:48N 38°47' E 007°21'411.6
2017-May-18 21:27N 38°48' E 007°16'511.5
2017-May-18 21:00N 38°48' E 007°09'811.3
2017-May-18 20:18N 38°49' E 006°59'311.3
2017-May-18 20:00N 38°49' E 006°55'611.2
2017-May-18 19:26N 38°50' E 006°46'711.3
2017-May-18 18:51N 38°50' E 006°38'411.4
2017-May-18 18:30N 38°51' E 006°33'611.5
2017-May-18 17:57N 38°51' E 006°25'611.9
2017-May-18 17:26N 38°52' E 006°17'512.2
2017-May-18 17:00N 38°52' E 006°10'612.4
2017-May-18 16:30N 38°53' E 006°02'612.5
2017-May-18 15:59N 38°53' E 005°54'712.4
2017-May-18 15:24N 38°54' E 005°45'912.1
2017-May-18 14:39N 38°55' E 005°33'1812.0
2017-May-18 13:10N 38°56' E 005°10'212.1
2017-May-18 12:58N 38°57' E 005°07'812.2
2017-May-18 12:17N 38°57' E 004°56'712.4
2017-May-18 11:45N 38°58' E 004°48'312.4
2017-May-18 11:30N 38°58' E 004°44'612.5
2017-May-18 11:00N 38°59' E 004°36'612.4
2017-May-18 10:30N 38°59' E 004°28'612.2
2017-May-18 10:00N 38°60' E 004°20'612.0
2017-May-18 09:30N 39°00' E 004°13'612.1
2017-May-18 09:00N 39°01' E 004°05'611.9
2017-May-18 08:30N 39°01' E 003°57'611.9
2017-May-18 08:00N 39°02' E 003°50'612.3
2017-May-18 07:30N 39°02' E 003°42'612.8
2017-May-18 07:00N 39°03' E 003°34'612.6
2017-May-18 06:30N 39°03' E 003°25'612.5
2017-May-18 06:00N 39°04' E 003°17'612.7
2017-May-18 05:30N 39°05' E 003°09'612.6
2017-May-18 05:00N 39°05' E 003°01'612.3
2017-May-18 04:30N 39°06' E 002°53'612.7
2017-May-18 04:00N 39°07' E 002°45'612.9
2017-May-18 03:31N 39°07' E 002°37'713.1
2017-May-18 03:00N 39°08' E 002°29'713.1
2017-May-18 02:30N 39°09' E 002°20'612.6
2017-May-18 02:00N 39°10' E 002°12'612.2
2017-May-18 01:30N 39°11' E 002°04'612.5
2017-May-18 01:00N 39°11' E 001°56'613.0
2017-May-18 00:30N 39°12' E 001°48'713.3
2017-May-18 00:00N 39°13' E 001°40'713.3
2017-May-17 23:30N 39°14' E 001°31'713.3
2017-May-17 23:00N 39°15' E 001°22'613.0
2017-May-17 22:30N 39°16' E 001°14'612.5
2017-May-17 22:00N 39°17' E 001°06'612.2
2017-May-17 21:30N 39°17' E 000°58'612.1
2017-May-17 21:00N 39°18' E 000°50'2312.5
2017-May-17 19:10N 39°21' E 000°21'312.3
2017-May-17 18:56N 39°22' E 000°18'511.9
2017-May-17 18:30N 39°22' E 000°11'611.9
2017-May-17 18:00N 39°23' E 000°03'612.1
2017-May-17 17:29N 39°23' W 000°05'612.1
2017-May-17 17:00N 39°24' W 000°12'611.3
2017-May-17 16:30N 39°27' W 000°19'1 1.1
2017-May-17 15:43N 39°27' W 000°19'0 0.0
2017-May-17 15:31N 39°27' W 000°19'0 0.0
2017-May-17 15:00N 39°27' W 000°19'0 0.0
2017-May-17 14:00N 39°27' W 000°19'0 0.0
2017-May-17 13:30N 39°27' W 000°19'0 0.0
2017-May-17 12:59N 39°27' W 000°19'0 0.0
2017-May-17 12:29N 39°27' W 000°19'0 0.0
2017-May-17 11:59N 39°27' W 000°19'0 0.0
2017-May-17 11:29N 39°27' W 000°19'0 0.0
2017-May-17 10:59N 39°27' W 000°19'0 0.0
2017-May-17 10:16N 39°27' W 000°19'0 0.0
2017-May-17 09:58N 39°27' W 000°19'0 0.0
2017-May-17 09:28N 39°27' W 000°19'0 0.0
2017-May-17 08:58N 39°27' W 000°19'0 0.0
2017-May-17 08:27N 39°27' W 000°19'0 0.0
2017-May-17 08:00N 39°27' W 000°19'0 0.0
2017-May-17 07:27N 39°27' W 000°19'0 0.0
2017-May-17 06:51N 39°27' W 000°19'0 0.0
2017-May-17 06:21N 39°27' W 000°19'0 0.0
2017-May-17 05:57N 39°27' W 000°19'0 0.7
2017-May-17 05:31N 39°27' W 000°19'1 2.5
2017-May-17 05:00N 39°26' W 000°18'4 7.8
2017-May-17 04:30N 39°25' W 000°14'1812.2
2017-May-17 03:04N 39°34' E 000°06'113.2
2017-May-17 03:00N 39°34' E 000°06'713.2
2017-May-17 02:29N 39°40' E 000°12'613.2
2017-May-17 02:00N 39°45' E 000°17'713.1
2017-May-17 01:30N 39°50' E 000°22'713.0
2017-May-17 01:00N 39°56' E 000°27'612.9
2017-May-17 00:30N 40°01' E 000°31'613.1
2017-May-17 00:00N 40°05' E 000°38'713.1
2017-May-16 23:30N 40°09' E 000°44'713.0
2017-May-16 23:00N 40°14' E 000°51'713.1
2017-May-16 22:30N 40°18' E 000°57'612.9
2017-May-16 22:00N 40°23' E 001°03'612.9
2017-May-16 21:30N 40°27' E 001°10'612.7
2017-May-16 21:01N 40°31' E 001°16'612.4
2017-May-16 20:30N 40°35' E 001°22'612.5
2017-May-16 20:00N 40°40' E 001°28'612.4
2017-May-16 19:30N 40°44' E 001°33'612.5
2017-May-16 19:00N 40°49' E 001°39'612.7
2017-May-16 18:30N 40°54' E 001°44'918.7
2017-May-16 18:00N 41°01' E 001°52'918.7
2017-May-16 17:30N 41°08' E 002°01'918.3
2017-May-16 17:00N 41°15' E 002°09'611.9
2017-May-16 16:30N 41°20' E 002°10'1 0.7
2017-May-16 14:27N 41°22' E 002°11'0 0.1
2017-May-16 13:21N 41°22' E 002°11'0 0.0
2017-May-16 12:45N 41°22' E 002°11'0 0.0
2017-May-16 12:27N 41°22' E 002°11'0 0.1
2017-May-16 11:30N 41°22' E 002°11'0 0.0
2017-May-16 10:34N 41°22' E 002°11'0 0.0
2017-May-16 10:29N 41°22' E 002°11'0 0.0
2017-May-16 09:16N 41°22' E 002°11'0 0.0
2017-May-16 08:58N 41°22' E 002°11'0 0.0
2017-May-16 08:10N 41°22' E 002°11'0 0.0
2017-May-16 06:57N 41°22' E 002°11'0 0.0
2017-May-16 06:15N 41°22' E 002°11'0 1.0
2017-May-16 06:00N 41°22' E 002°11'2 2.7
2017-May-16 05:25N 41°20' E 002°10'3 8.3
2017-May-16 05:00N 41°17' E 002°12'3 6.8
2017-May-16 04:30N 41°17' E 002°16'613.0
2017-May-16 04:01N 41°22' E 002°23'612.6
2017-May-16 03:31N 41°25' E 002°30'712.8
2017-May-16 03:00N 41°29' E 002°37'612.7
2017-May-16 02:30N 41°32' E 002°44'612.7
2017-May-16 02:00N 41°36' E 002°51'712.6
2017-May-16 01:25N 41°40' E 002°59'512.7
2017-May-16 01:00N 41°44' E 003°04'612.6
2017-May-16 00:30N 41°48' E 003°11'612.8
2017-May-16 00:00N 41°52' E 003°17'712.8
2017-May-15 23:27N 41°57' E 003°23'3612.6
2017-May-15 20:38N 42°22' E 003°57'112.5
2017-May-15 20:30N 42°23' E 003°59'1412.5
2017-May-15 19:21N 42°33' E 004°13'1214.9
2017-May-15 18:35N 42°42' E 004°24'118.7
2017-May-15 18:31N 42°42' E 004°25'1818.7
2017-May-15 17:33N 42°55' E 004°43'118.2
2017-May-15 17:30N 42°56' E 004°43'918.5
2017-May-15 17:00N 43°02' E 004°52'918.3
2017-May-15 16:31N 43°08' E 005°01'918.2
2017-May-15 16:00N 43°15' E 005°10'815.2
2017-May-15 15:30N 43°20' E 005°18'2 3.2
2017-May-15 14:58N 43°21' E 005°20'0 0.0
2017-May-15 14:21N 43°21' E 005°20'0 0.0
2017-May-15 13:27N 43°21' E 005°20'0 0.0
2017-May-15 12:57N 43°21' E 005°20'0 0.0
2017-May-15 12:27N 43°21' E 005°20'0 0.0
2017-May-15 11:50N 43°21' E 005°20'0 0.0
2017-May-15 11:20N 43°21' E 005°20'0 0.0
2017-May-15 10:56N 43°21' E 005°20'0 0.0
2017-May-15 10:26N 43°21' E 005°20'0 0.0
2017-May-15 09:55N 43°21' E 005°20'0 0.0
2017-May-15 09:01N 43°21' E 005°20'0 0.0
2017-May-15 08:43N 43°21' E 005°20'0 0.0
2017-May-15 07:18N 43°21' E 005°20'0 0.0
2017-May-15 06:48N 43°21' E 005°20'0 0.0
2017-May-15 06:30N 43°21' E 005°20'0 0.0
2017-May-15 06:00N 43°21' E 005°20'0 0.1
2017-May-15 05:30N 43°21' E 005°20'1 2.7
2017-May-15 05:01N 43°21' E 005°18'611.3
2017-May-15 04:30N 43°17' E 005°12'815.5
2017-May-15 04:00N 43°10' E 005°13'  
Track history (hours):
 
Tides and Currents Weather Stations Pressure Air Temp Water Temp Dewpoint Dewpoint Depression Visibility Wind Speed Wind Dir Waves Ship Positions

Costa Pacifica

Last reported at 2017-May-24 23:53 UTC. Time now 2017-May-25 10:38 UTC.
Position N 35°58' W 005°49'.

Length 290 m; draft 8.3 m.

Type: Ship. MMSI: 247258100.

Date/timePositionNaut miles runAvg speedWind from/ knotsBaromVisibWave heightAir tempDewpointWater temp
2017-May-24 23:53N 35°58' W 005°49'615.7
2017-May-24 23:30N 35°58' W 005°42'919.0
2017-May-24 23:00N 35°59' W 005°30'918.2
2017-May-24 22:30N 36°01' W 005°20'917.4
2017-May-24 22:00N 36°03' W 005°09'1017.9
2017-May-24 21:27N 36°06' W 004°57'20014.0
2017-May-24 07:06N 37°15' W 001°03'218.7
2017-May-24 06:59N 37°16' W 001°01'1018.4
2017-May-24 06:26N 37°23' W 000°51'818.4
2017-May-24 06:00N 37°27' W 000°43'918.9
2017-May-24 05:30N 37°34' W 000°34'918.8
2017-May-24 05:00N 37°41' W 000°27'1018.7
2017-May-24 04:29N 37°49' W 000°21'1018.3
2017-May-24 03:55N 37°58' W 000°14'918.4
2017-May-24 03:27N 38°05' W 000°08'918.7
2017-May-24 02:57N 38°13' W 000°01'918.7
2017-May-24 02:30N 38°20' E 000°05'1718.9
2017-May-24 01:35N 38°35' E 000°17'518.8
2017-May-24 01:18N 38°39' E 000°20'618.6
2017-May-24 01:00N 38°44' E 000°24'3318.7
2017-May-23 23:15N 39°13' E 000°44'618.7
2017-May-23 22:56N 39°18' E 000°48'1018.6
2017-May-23 22:24N 39°27' E 000°54'1318.7
2017-May-23 21:43N 39°38' E 001°01'418.7
2017-May-23 21:31N 39°42' E 001°04'1019.0
2017-May-23 21:00N 39°50' E 001°10'918.8
2017-May-23 20:30N 39°58' E 001°16'918.7
2017-May-23 20:00N 40°07' E 001°21'918.6
2017-May-23 19:30N 40°15' E 001°27'918.4
2017-May-23 19:01N 40°23' E 001°33'918.1
2017-May-23 18:30N 40°31' E 001°38'918.3
2017-May-23 18:01N 40°39' E 001°44'918.3
2017-May-23 17:30N 40°47' E 001°50'918.6
2017-May-23 17:00N 40°55' E 001°55'918.6
2017-May-23 16:31N 41°03' E 002°01'918.5
2017-May-23 16:00N 41°11' E 002°07'815.8
2017-May-23 15:31N 41°19' E 002°10'2 1.0
2017-May-23 13:13N 41°21' E 002°10'0 0.0
2017-May-23 12:31N 41°21' E 002°10'0 0.0
2017-May-23 12:19N 41°21' E 002°10'0 0.0
2017-May-23 11:55N 41°21' E 002°10'0 0.0
2017-May-23 11:22N 41°21' E 002°10'0 0.0
2017-May-23 11:01N 41°21' E 002°10'0 0.0
2017-May-23 10:24N 41°21' E 002°10'0 0.0
2017-May-23 09:57N 41°21' E 002°10'0 0.0
2017-May-23 09:27N 41°21' E 002°10'0 0.0
2017-May-23 08:54N 41°21' E 002°10'0 0.0
2017-May-23 08:23N 41°21' E 002°10'0 0.0
2017-May-23 07:56N 41°21' E 002°10'0 0.0
2017-May-23 07:29N 41°21' E 002°10'0 0.0
2017-May-23 06:56N 41°21' E 002°10'0 0.2
2017-May-23 06:30N 41°21' E 002°10'1 2.3
2017-May-23 06:00N 41°20' E 002°10'4 7.9
2017-May-23 05:30N 41°17' E 002°13'612.3
2017-May-23 05:00N 41°19' E 002°20'612.4
2017-May-23 04:30N 41°23' E 002°27'612.6
2017-May-23 04:00N 41°27' E 002°33'612.4
2017-May-23 03:30N 41°31' E 002°40'612.4
2017-May-23 03:00N 41°34' E 002°47'912.4
2017-May-23 02:19N 41°39' E 002°56'412.3
2017-May-23 01:59N 41°41' E 003°01'612.3
2017-May-23 01:30N 41°44' E 003°07'612.1
2017-May-23 00:59N 41°49' E 003°13'612.1
2017-May-23 00:29N 41°53' E 003°18'612.5
2017-May-23 00:00N 41°58' E 003°24'812.7
2017-May-22 23:23N 42°03' E 003°31'812.7
2017-May-22 22:45N 42°09' E 003°39'312.6
2017-May-22 22:30N 42°11' E 003°42'612.6
2017-May-22 21:59N 42°16' E 003°48'712.6
2017-May-22 21:28N 42°20' E 003°55'612.5
2017-May-22 21:01N 42°24' E 004°00'612.3
2017-May-22 20:30N 42°29' E 004°06'612.6
2017-May-22 20:00N 42°33' E 004°12'612.8
2017-May-22 19:30N 42°38' E 004°19'612.7
2017-May-22 19:00N 42°42' E 004°25'612.7
2017-May-22 18:30N 42°46' E 004°31'612.7
2017-May-22 18:01N 42°51' E 004°37'612.6
2017-May-22 17:30N 42°55' E 004°43'612.5
2017-May-22 17:00N 42°60' E 004°49'612.3
2017-May-22 16:30N 43°04' E 004°55'612.6
2017-May-22 16:00N 43°08' E 005°02'612.5
2017-May-22 15:30N 43°13' E 005°07'612.4
2017-May-22 15:00N 43°17' E 005°13'6 4.9
2017-May-22 13:47N 43°21' E 005°20'0 0.0
2017-May-22 13:29N 43°21' E 005°20'0 0.0
2017-May-22 12:59N 43°21' E 005°20'0 0.0
2017-May-22 12:28N 43°21' E 005°20'0 0.0
2017-May-22 11:52N 43°21' E 005°20'0 0.0
2017-May-22 11:19N 43°21' E 005°20'0 0.0
2017-May-22 10:58N 43°21' E 005°20'0 0.0
2017-May-22 10:28N 43°21' E 005°20'0 0.0
2017-May-22 09:54N 43°21' E 005°20'0 0.0
2017-May-22 09:21N 43°21' E 005°20'0 0.0
2017-May-22 08:48N 43°21' E 005°20'0 0.0
2017-May-22 08:09N 43°21' E 005°20'0 0.0
2017-May-22 07:56N 43°21' E 005°20'0 0.0
2017-May-22 07:20N 43°21' E 005°20'0 0.0
2017-May-22 06:50N 43°21' E 005°20'0 0.0
2017-May-22 06:31N 43°21' E 005°20'1 2.1
2017-May-22 06:00N 43°21' E 005°19'4 8.6
2017-May-22 05:31N 43°19' E 005°14'714.2
2017-May-22 04:59N 43°12' E 005°18'712.9
2017-May-22 04:25N 43°07' E 005°26'613.2
2017-May-22 03:57N 43°04' E 005°33'613.2
2017-May-22 03:30N 43°02' E 005°40'713.1
2017-May-22 02:58N 42°60' E 005°50'613.1
2017-May-22 02:30N 42°57' E 005°57'613.0
2017-May-22 02:00N 42°55' E 006°06'612.6
2017-May-22 01:30N 42°53' E 006°14'612.4
2017-May-22 01:00N 42°53' E 006°22'612.1
2017-May-22 00:30N 42°55' E 006°30'712.9
2017-May-22 00:00N 42°59' E 006°38'612.9
2017-May-21 23:30N 43°03' E 006°44'712.8
2017-May-21 23:00N 43°06' E 006°52'712.7
2017-May-21 22:25N 43°10' E 007°00'512.8
2017-May-21 22:00N 43°14' E 007°06'612.8
2017-May-21 21:30N 43°18' E 007°13'612.9
2017-May-21 21:00N 43°22' E 007°20'612.9
2017-May-21 20:30N 43°26' E 007°27'613.0
2017-May-21 20:00N 43°29' E 007°34'612.7
2017-May-21 19:30N 43°33' E 007°41'816.5
2017-May-21 19:01N 43°39' E 007°49'918.9
2017-May-21 18:30N 43°45' E 007°59'918.8
2017-May-21 18:01N 43°52' E 008°08'918.4
2017-May-21 17:31N 43°59' E 008°16'917.9
2017-May-21 17:01N 44°06' E 008°24'917.8
2017-May-21 16:31N 44°13' E 008°31'611.6
2017-May-21 16:01N 44°19' E 008°31'1 2.2
2017-May-21 15:28N 44°19' E 008°29'0 0.0
2017-May-21 14:58N 44°19' E 008°29'0 0.0
2017-May-21 14:28N 44°19' E 008°29'0 0.0
2017-May-21 13:28N 44°19' E 008°29'0 0.0
2017-May-21 13:00N 44°19' E 008°29'0 0.0
2017-May-21 12:30N 44°19' E 008°29'0 0.0
2017-May-21 12:00N 44°19' E 008°29'0 0.0
2017-May-21 11:30N 44°19' E 008°29'0 0.0
2017-May-21 10:59N 44°19' E 008°29'0 0.0
2017-May-21 10:29N 44°19' E 008°29'0 0.0
2017-May-21 09:59N 44°19' E 008°29'0 0.0
2017-May-21 09:29N 44°19' E 008°29'0 0.0
2017-May-21 08:59N 44°19' E 008°29'0 0.0
2017-May-21 08:28N 44°19' E 008°29'0 0.0
2017-May-21 07:58N 44°19' E 008°29'0 0.0
2017-May-21 07:28N 44°19' E 008°29'0 0.0
2017-May-21 06:55N 44°19' E 008°29'0 0.0
2017-May-21 06:28N 44°19' E 008°29'0 0.0
2017-May-21 06:00N 44°19' E 008°29'0 0.0
2017-May-21 05:30N 44°19' E 008°29'1 2.7
2017-May-21 05:00N 44°19' E 008°31'612.7
2017-May-21 04:30N 44°14' E 008°36'612.8
2017-May-21 04:01N 44°09' E 008°41'612.3
2017-May-21 03:30N 44°03' E 008°45'713.0
2017-May-21 03:00N 43°58' E 008°50'815.6
2017-May-21 02:30N 43°51' E 008°56'1019.2
2017-May-21 02:01N 43°43' E 009°03'918.8
2017-May-21 01:31N 43°35' E 009°10'918.3
2017-May-21 01:01N 43°28' E 009°17'918.0
2017-May-21 00:31N 43°20' E 009°23'917.7
2017-May-21 00:01N 43°13' E 009°30'917.5
2017-May-20 23:31N 43°05' E 009°37'917.8
2017-May-20 23:01N 42°57' E 009°41'917.8
2017-May-20 22:31N 42°49' E 009°46'918.4
2017-May-20 22:01N 42°44' E 009°57'918.1
2017-May-20 21:30N 42°39' E 010°07'917.9
2017-May-20 21:01N 42°34' E 010°17'918.0
2017-May-20 20:30N 42°28' E 010°27'917.9
2017-May-20 20:00N 42°23' E 010°37'68 3.7
2017-May-20 01:46N 41°20' E 011°12'517.2
2017-May-20 01:30N 41°16' E 011°09'917.3
2017-May-20 00:58N 41°08' E 011°04'817.2
2017-May-20 00:29N 41°00' E 010°59'917.6
2017-May-19 23:58N 40°52' E 010°53'817.6
2017-May-19 23:30N 40°45' E 010°48'917.6
2017-May-19 23:00N 40°37' E 010°43'1020.0
2017-May-19 22:30N 40°28' E 010°37'1020.2
2017-May-19 22:00N 40°19' E 010°31'1020.1
2017-May-19 21:30N 40°10' E 010°25'1120.7
2017-May-19 21:00N 40°01' E 010°19'1121.0
2017-May-19 20:29N 39°51' E 010°12'1120.9
2017-May-19 19:58N 39°42' E 010°06'1120.8
2017-May-19 19:28N 39°32' E 009°60'1020.8
2017-May-19 18:59N 39°23' E 009°54'1020.6
2017-May-19 18:30N 39°14' E 009°48'1020.0
2017-May-19 17:59N 39°06' E 009°41'919.7
2017-May-19 17:30N 38°59' E 009°32'1020.3
2017-May-19 17:00N 39°04' E 009°20'1019.3
2017-May-19 16:29N 39°09' E 009°09'4 9.1
2017-May-19 16:00N 39°13' E 009°06'0 0.0
2017-May-19 15:28N 39°13' E 009°06'0 0.0
2017-May-19 14:55N 39°13' E 009°06'0 0.0
2017-May-19 13:58N 39°13' E 009°06'0 0.0
2017-May-19 13:30N 39°13' E 009°06'0 0.0
2017-May-19 13:00N 39°13' E 009°06'0 0.0
2017-May-19 12:30N 39°13' E 009°06'0 0.0
2017-May-19 12:00N 39°13' E 009°06'0 0.0
2017-May-19 11:30N 39°13' E 009°06'0 0.0
2017-May-19 10:59N 39°13' E 009°06'0 0.0
2017-May-19 10:29N 39°13' E 009°06'0 0.0
2017-May-19 09:59N 39°13' E 009°06'0 0.0
2017-May-19 09:29N 39°13' E 009°06'0 0.0
2017-May-19 08:59N 39°13' E 009°06'0 0.0
2017-May-19 08:28N 39°13' E 009°06'0 0.0
2017-May-19 07:58N 39°13' E 009°06'0 0.0
2017-May-19 07:28N 39°13' E 009°06'0 0.0
2017-May-19 06:58N 39°13' E 009°06'86 9.4
2017-May-18 21:48N 38°47' E 007°21'411.6
2017-May-18 21:27N 38°48' E 007°16'511.5
2017-May-18 21:00N 38°48' E 007°09'811.3
2017-May-18 20:18N 38°49' E 006°59'311.3
2017-May-18 20:00N 38°49' E 006°55'611.2
2017-May-18 19:26N 38°50' E 006°46'711.3
2017-May-18 18:51N 38°50' E 006°38'411.4
2017-May-18 18:30N 38°51' E 006°33'611.5
2017-May-18 17:57N 38°51' E 006°25'611.9
2017-May-18 17:26N 38°52' E 006°17'512.2
2017-May-18 17:00N 38°52' E 006°10'612.4
2017-May-18 16:30N 38°53' E 006°02'612.5
2017-May-18 15:59N 38°53' E 005°54'712.4
2017-May-18 15:24N 38°54' E 005°45'912.1
2017-May-18 14:39N 38°55' E 005°33'1812.0
2017-May-18 13:10N 38°56' E 005°10'212.1
2017-May-18 12:58N 38°57' E 005°07'812.2
2017-May-18 12:17N 38°57' E 004°56'712.4
2017-May-18 11:45N 38°58' E 004°48'312.4
2017-May-18 11:30N 38°58' E 004°44'612.5
2017-May-18 11:00N 38°59' E 004°36'612.4
2017-May-18 10:30N 38°59' E 004°28'612.2
2017-May-18 10:00N 38°60' E 004°20'612.0
2017-May-18 09:30N 39°00' E 004°13'612.1
2017-May-18 09:00N 39°01' E 004°05'611.9
2017-May-18 08:30N 39°01' E 003°57'611.9
2017-May-18 08:00N 39°02' E 003°50'612.3
2017-May-18 07:30N 39°02' E 003°42'612.8
2017-May-18 07:00N 39°03' E 003°34'612.6
2017-May-18 06:30N 39°03' E 003°25'612.5
2017-May-18 06:00N 39°04' E 003°17'612.7
2017-May-18 05:30N 39°05' E 003°09'612.6
2017-May-18 05:00N 39°05' E 003°01'612.3
2017-May-18 04:30N 39°06' E 002°53'612.7
2017-May-18 04:00N 39°07' E 002°45'612.9
2017-May-18 03:31N 39°07' E 002°37'713.1
2017-May-18 03:00N 39°08' E 002°29'713.1
2017-May-18 02:30N 39°09' E 002°20'612.6
2017-May-18 02:00N 39°10' E 002°12'612.2
2017-May-18 01:30N 39°11' E 002°04'612.5
2017-May-18 01:00N 39°11' E 001°56'613.0
2017-May-18 00:30N 39°12' E 001°48'713.3
2017-May-18 00:00N 39°13' E 001°40'713.3
2017-May-17 23:30N 39°14' E 001°31'713.3
2017-May-17 23:00N 39°15' E 001°22'613.0
2017-May-17 22:30N 39°16' E 001°14'612.5
2017-May-17 22:00N 39°17' E 001°06'612.2
2017-May-17 21:30N 39°17' E 000°58'612.1
2017-May-17 21:00N 39°18' E 000°50'2312.5
2017-May-17 19:10N 39°21' E 000°21'312.3
2017-May-17 18:56N 39°22' E 000°18'511.9
2017-May-17 18:30N 39°22' E 000°11'611.9
2017-May-17 18:00N 39°23' E 000°03'612.1
2017-May-17 17:29N 39°23' W 000°05'612.1
2017-May-17 17:00N 39°24' W 000°12'611.3
2017-May-17 16:30N 39°27' W 000°19'1 1.1
2017-May-17 15:43N 39°27' W 000°19'0 0.0
2017-May-17 15:31N 39°27' W 000°19'0 0.0
2017-May-17 15:00N 39°27' W 000°19'0 0.0
2017-May-17 14:00N 39°27' W 000°19'0 0.0
2017-May-17 13:30N 39°27' W 000°19'0 0.0
2017-May-17 12:59N 39°27' W 000°19'0 0.0
2017-May-17 12:29N 39°27' W 000°19'0 0.0
2017-May-17 11:59N 39°27' W 000°19'0 0.0
2017-May-17 11:29N 39°27' W 000°19'0 0.0
2017-May-17 10:59N 39°27' W 000°19'0 0.0
2017-May-17 10:16N 39°27' W 000°19'0 0.0
2017-May-17 09:58N 39°27' W 000°19'0 0.0
2017-May-17 09:28N 39°27' W 000°19'0 0.0
2017-May-17 08:58N 39°27' W 000°19'0 0.0
2017-May-17 08:27N 39°27' W 000°19'0 0.0
2017-May-17 08:00N 39°27' W 000°19'0 0.0
2017-May-17 07:27N 39°27' W 000°19'0 0.0
2017-May-17 06:51N 39°27' W 000°19'0 0.0
2017-May-17 06:21N 39°27' W 000°19'0 0.0
2017-May-17 05:57N 39°27' W 000°19'0 0.7
2017-May-17 05:31N 39°27' W 000°19'1 2.5
2017-May-17 05:00N 39°26' W 000°18'4 7.8
2017-May-17 04:30N 39°25' W 000°14'1812.2
2017-May-17 03:04N 39°34' E 000°06'113.2
2017-May-17 03:00N 39°34' E 000°06'713.2
2017-May-17 02:29N 39°40' E 000°12'613.2
2017-May-17 02:00N 39°45' E 000°17'713.1
2017-May-17 01:30N 39°50' E 000°22'713.0
2017-May-17 01:00N 39°56' E 000°27'612.9
2017-May-17 00:30N 40°01' E 000°31'613.1
2017-May-17 00:00N 40°05' E 000°38'713.1
2017-May-16 23:30N 40°09' E 000°44'713.0
2017-May-16 23:00N 40°14' E 000°51'713.1
2017-May-16 22:30N 40°18' E 000°57'612.9
2017-May-16 22:00N 40°23' E 001°03'612.9
2017-May-16 21:30N 40°27' E 001°10'612.7
2017-May-16 21:01N 40°31' E 001°16'612.4
2017-May-16 20:30N 40°35' E 001°22'612.5
2017-May-16 20:00N 40°40' E 001°28'612.4
2017-May-16 19:30N 40°44' E 001°33'612.5
2017-May-16 19:00N 40°49' E 001°39'612.7
2017-May-16 18:30N 40°54' E 001°44'918.7
2017-May-16 18:00N 41°01' E 001°52'918.7
2017-May-16 17:30N 41°08' E 002°01'918.3
2017-May-16 17:00N 41°15' E 002°09'611.9
2017-May-16 16:30N 41°20' E 002°10'1 0.7
2017-May-16 14:27N 41°22' E 002°11'0 0.1
2017-May-16 13:21N 41°22' E 002°11'0 0.0
2017-May-16 12:45N 41°22' E 002°11'0 0.0
2017-May-16 12:27N 41°22' E 002°11'0 0.1
2017-May-16 11:30N 41°22' E 002°11'0 0.0
2017-May-16 10:34N 41°22' E 002°11'0 0.0
2017-May-16 10:29N 41°22' E 002°11'0 0.0
2017-May-16 09:16N 41°22' E 002°11'0 0.0
2017-May-16 08:58N 41°22' E 002°11'0 0.0
2017-May-16 08:10N 41°22' E 002°11'0 0.0
2017-May-16 06:57N 41°22' E 002°11'0 0.0
2017-May-16 06:15N 41°22' E 002°11'0 1.0
2017-May-16 06:00N 41°22' E 002°11'2 2.7
2017-May-16 05:25N 41°20' E 002°10'3 8.3
2017-May-16 05:00N 41°17' E 002°12'3 6.8
2017-May-16 04:30N 41°17' E 002°16'613.0
2017-May-16 04:01N 41°22' E 002°23'612.6
2017-May-16 03:31N 41°25' E 002°30'712.8
2017-May-16 03:00N 41°29' E 002°37'612.7
2017-May-16 02:30N 41°32' E 002°44'612.7
2017-May-16 02:00N 41°36' E 002°51'712.6
2017-May-16 01:25N 41°40' E 002°59'512.7
2017-May-16 01:00N 41°44' E 003°04'612.6
2017-May-16 00:30N 41°48' E 003°11'612.8
2017-May-16 00:00N 41°52' E 003°17'712.8
2017-May-15 23:27N 41°57' E 003°23'3612.6
2017-May-15 20:38N 42°22' E 003°57'112.5
2017-May-15 20:30N 42°23' E 003°59'1412.5
2017-May-15 19:21N 42°33' E 004°13'1214.9
2017-May-15 18:35N 42°42' E 004°24'118.7
2017-May-15 18:31N 42°42' E 004°25'1818.7
2017-May-15 17:33N 42°55' E 004°43'118.2
2017-May-15 17:30N 42°56' E 004°43'918.5
2017-May-15 17:00N 43°02' E 004°52'918.3
2017-May-15 16:31N 43°08' E 005°01'918.2
2017-May-15 16:00N 43°15' E 005°10'815.2
2017-May-15 15:30N 43°20' E 005°18'2 3.2
2017-May-15 14:58N 43°21' E 005°20'0 0.0
2017-May-15 14:21N 43°21' E 005°20'0 0.0
2017-May-15 13:27N 43°21' E 005°20'0 0.0
2017-May-15 12:57N 43°21' E 005°20'0 0.0
2017-May-15 12:27N 43°21' E 005°20'0 0.0
2017-May-15 11:50N 43°21' E 005°20'0 0.0
2017-May-15 11:20N 43°21' E 005°20'0 0.0
2017-May-15 10:56N 43°21' E 005°20'0 0.0
2017-May-15 10:26N 43°21' E 005°20'0 0.0
2017-May-15 09:55N 43°21' E 005°20'0 0.0
2017-May-15 09:01N 43°21' E 005°20'0 0.0
2017-May-15 08:43N 43°21' E 005°20'0 0.0
2017-May-15 07:18N 43°21' E 005°20'0 0.0
2017-May-15 06:48N 43°21' E 005°20'0 0.0
2017-May-15 06:30N 43°21' E 005°20'0 0.0
2017-May-15 06:00N 43°21' E 005°20'0 0.1
2017-May-15 05:30N 43°21' E 005°20'1 2.7
2017-May-15 05:01N 43°21' E 005°18'611.3
2017-May-15 04:30N 43°17' E 005°12'815.5
2017-May-15 04:00N 43°10' E 005°13'  

Dump ship's entire track history